Time;durP1;ratioP1;P1;durP2;ratioP2;P2;SDS_P1;SDS_P2;PMS_P1;PMS_P2;Temp;Humidity;BMP_temperature;BMP_pressure;BME280_temperature;BME280_humidity;BME280_pressure;Samples;Min_cycle;Max_cycle;Signal;HPM_P1;HPM_P2
2022/02/09 00:00:19;;;;;;;10.32;4.40;;;;;;;2.64;61.43;100168.02;1754390;80;21025;-52
2022/02/09 00:03:04;;;;;;;13.38;4.37;;;;;;;2.64;61.32;100160.23;1785298;78;21085;-56
2022/02/09 00:10:21;;;;;;;10.00;4.60;;;;;;;2.70;61.22;100160.36;1757268;79;21621;-53
2022/02/09 00:13:09;;;;;;;11.57;4.58;;;;;;;2.72;61.22;100160.68;1735376;80;21135;-53
2022/02/09 00:18:10;;;;;;;9.88;4.28;;;;;;;2.74;61.12;100158.84;1735231;80;28236;-54
2022/02/09 00:23:39;;;;;;;10.55;4.75;;;;;;;2.79;61.06;100153.38;1763110;79;21179;-53
2022/02/09 00:33:54;;;;;;;9.15;3.72;;;;;;;2.64;61.29;100142.05;1782968;78;21005;-54
2022/02/09 01:03:00;;;;;;;10.10;4.40;;;;;;;2.80;61.43;100118.70;1739769;80;22046;-54
2022/02/09 01:57:06;;;;;;;9.35;4.28;;;;;;;2.83;64.01;100081.33;1727523;78;21159;-54
2022/02/09 01:59:33;;;;;;;10.00;4.50;;;;;;;2.85;64.17;100080.78;1764581;79;21062;-53
2022/02/09 02:02:00;;;;;;;10.03;4.08;;;;;;;2.92;64.35;100076.93;1729932;80;21056;-53
2022/02/09 02:04:27;;;;;;;13.88;3.85;;;;;;;2.99;64.62;100086.07;1757825;78;21007;-53
2022/02/09 02:06:55;;;;;;;12.37;4.22;;;;;;;2.99;64.95;100086.07;1747639;79;21025;-54
2022/02/09 02:09:24;;;;;;;12.40;5.00;;;;;;;2.97;65.31;100085.32;1752203;80;22127;-53
2022/02/09 02:11:57;;;;;;;9.60;4.33;;;;;;;2.93;65.62;100079.45;1780595;78;21503;-52
2022/02/09 02:14:30;;;;;;;12.05;4.15;;;;;;;2.92;65.73;100079.53;1788511;78;21059;-53
2022/02/09 02:16:57;;;;;;;9.30;4.62;;;;;;;2.88;65.94;100077.56;1776298;79;21000;-54
2022/02/09 02:22:08;;;;;;;7.90;4.40;;;;;;;2.85;66.29;100080.31;1782921;78;21153;-54
2022/02/09 02:24:47;;;;;;;9.88;4.70;;;;;;;2.83;66.42;100078.73;1779832;78;21061;-52
2022/02/09 02:47:41;;;;;;;13.43;5.33;;;;;;;2.73;67.23;100061.02;1770182;78;21528;-54
2022/02/09 03:14:15;;;;;;;13.13;4.67;;;;;;;2.75;67.79;100073.92;1764557;80;21075;-52
2022/02/09 03:16:51;;;;;;;7.53;3.75;;;;;;;2.72;67.81;100070.19;1755521;80;21057;-52
2022/02/09 03:22:09;;;;;;;10.35;4.70;;;;;;;2.62;67.96;100072.41;1780913;78;21053;-52
2022/02/09 03:24:38;;;;;;;8.53;3.98;;;;;;;2.66;67.88;100073.95;1751746;80;21041;-54
2022/02/09 03:27:26;;;;;;;10.50;4.42;;;;;;;2.72;67.86;100076.23;1753926;79;21208;-54
2022/02/09 03:48:52;;;;;;;9.30;4.40;;;;;;;2.54;69.00;100092.31;1756089;80;21091;-53
2022/02/09 03:53:56;;;;;;;12.30;3.98;;;;;;;2.63;69.12;100095.36;1780565;79;21096;-53
2022/02/09 03:56:53;;;;;;;8.28;4.17;;;;;;;2.68;69.10;100095.48;1767998;78;21046;-53
2022/02/09 03:58:57;;;;;;;10.00;4.05;;;;;;;2.74;69.11;100100.81;1755898;80;21404;-53
2022/02/09 04:01:27;;;;;;;10.23;4.20;;;;;;;2.74;69.20;100102.97;1730180;79;21129;-53
2022/02/09 04:03:52;;;;;;;7.80;3.98;;;;;;;2.74;69.28;100100.81;1773120;79;21047;-54
2022/02/09 04:06:19;;;;;;;9.30;4.58;;;;;;;2.75;69.36;100103.34;1768649;79;21129;-55
2022/02/09 04:08:54;;;;;;;8.28;3.87;;;;;;;2.72;69.41;100097.03;1765936;80;20987;-55
2022/02/09 04:14:16;;;;;;;7.45;3.75;;;;;;;2.64;69.66;100096.58;1749461;80;21078;-55
2022/02/09 04:19:35;;;;;;;9.40;4.35;;;;;;;2.76;69.83;100094.63;1860416;74;22613;-54
2022/02/09 04:38:45;;;;;;;12.03;4.17;;;;;;;2.78;70.33;100104.48;1828432;75;21120;-55
2022/02/09 04:46:37;;;;;;;8.98;3.55;;;;;;;2.98;70.07;100110.41;1846410;75;21049;-54
2022/02/09 04:54:31;;;;;;;8.30;3.60;;;;;;;3.10;70.14;100122.73;1751313;80;21380;-53
2022/02/09 04:59:34;;;;;;;7.20;3.10;;;;;;;3.03;70.18;100130.97;1769623;78;21014;-52
2022/02/09 05:04:54;;;;;;;8.68;3.85;;;;;;;2.90;70.51;100128.98;1798484;77;21106;-53
2022/02/09 05:18:09;;;;;;;7.70;3.45;;;;;;;3.17;70.52;100150.55;1798015;78;21534;-54
2022/02/09 05:26:22;;;;;;;8.25;4.00;;;;;;;3.12;70.80;100161.19;1794692;77;21034;-54
2022/02/09 05:28:38;;;;;;;8.00;3.90;;;;;;;3.08;70.92;100158.86;1799615;77;21100;-55
2022/02/09 05:31:06;;;;;;;8.60;3.58;;;;;;;3.10;70.96;100164.80;1799735;77;21170;-55
2022/02/09 05:33:33;;;;;;;6.08;3.20;;;;;;;3.19;70.84;100172.11;1781555;77;21018;-54
2022/02/09 05:35:59;;;;;;;6.92;3.95;;;;;;;3.27;70.87;100164.74;1764554;77;21006;-54
2022/02/09 05:38:26;;;;;;;8.48;4.33;;;;;;;3.30;70.72;100169.78;1783832;77;21493;-54
2022/02/09 05:40:52;;;;;;;6.78;3.80;;;;;;;3.27;70.78;100166.52;1805412;77;21529;-54
2022/02/09 05:43:21;;;;;;;8.43;3.52;;;;;;;3.28;70.84;100171.63;1796552;77;22714;-54
2022/02/09 05:50:56;;;;;;;8.83;3.45;;;;;;;3.23;71.16;100176.69;1798621;77;21104;-54
2022/02/09 05:53:23;;;;;;;9.13;3.65;;;;;;;3.26;71.21;100180.42;1800349;77;21033;-54
2022/02/09 05:55:50;;;;;;;9.80;4.08;;;;;;;3.37;71.10;100195.01;1800516;77;22028;-53
2022/02/09 06:00:58;;;;;;;7.42;3.30;;;;;;;3.51;70.93;100193.83;1781251;78;20979;-55
2022/02/09 06:03:24;;;;;;;6.30;3.08;;;;;;;3.55;70.98;100202.30;1804952;77;21461;-55
2022/02/09 06:05:51;;;;;;;7.47;3.22;;;;;;;3.54;70.86;100202.73;1745287;80;21110;-54
2022/02/09 06:08:17;;;;;;;7.58;4.12;;;;;;;3.46;70.93;100202.34;1749224;78;21713;-54
2022/02/09 06:10:53;;;;;;;10.98;3.72;;;;;;;3.44;71.16;100215.03;1768015;78;21068;-55
2022/02/09 06:13:45;;;;;;;10.13;3.60;;;;;;;3.40;71.26;100205.73;1749893;78;21519;-54
2022/02/09 06:16:08;;;;;;;8.15;3.62;;;;;;;3.47;71.15;100209.20;1774344;79;21157;-55
2022/02/09 06:21:12;;;;;;;9.48;3.10;;;;;;;3.57;71.17;100223.03;1784324;78;22897;-54
2022/02/09 06:23:39;;;;;;;6.47;3.47;;;;;;;3.56;71.38;100223.95;1771108;78;21397;-55
2022/02/09 06:26:06;;;;;;;8.15;3.72;;;;;;;3.53;71.43;100233.59;1796413;78;21027;-54
2022/02/09 06:28:32;;;;;;;9.68;3.90;;;;;;;3.48;71.47;100229.11;1788023;78;21024;-54
2022/02/09 06:31:00;;;;;;;7.03;3.67;;;;;;;3.46;71.76;100233.99;1787393;78;21108;-55
2022/02/09 06:33:27;;;;;;;9.95;3.72;;;;;;;3.48;71.73;100231.70;1762169;79;21141;-56
2022/02/09 06:35:55;;;;;;;7.65;4.05;;;;;;;3.59;71.52;100242.00;1781966;78;21033;-54
2022/02/09 06:38:22;;;;;;;6.25;3.40;;;;;;;3.66;71.44;100252.45;1786071;78;21041;-55
2022/02/09 06:40:53;;;;;;;7.10;3.12;;;;;;;3.72;71.35;100252.13;1767680;79;21090;-54
2022/02/09 06:43:17;;;;;;;6.45;3.27;;;;;;;3.75;71.34;100254.58;1794629;77;21047;-54
2022/02/09 06:45:43;;;;;;;6.87;3.77;;;;;;;3.75;71.30;100249.38;1797975;77;21769;-54
2022/02/09 06:48:17;;;;;;;7.03;3.45;;;;;;;3.76;71.34;100253.63;1799107;78;21537;-54
2022/02/09 06:50:51;;;;;;;5.70;3.02;;;;;;;3.75;71.36;100253.27;1799323;78;21118;-55
2022/02/09 06:55:49;;;;;;;7.42;3.55;;;;;;;3.91;71.04;100261.91;1789387;78;21528;-55
2022/02/09 06:58:19;;;;;;;9.13;4.53;;;;;;;3.99;70.77;100271.92;1786878;78;21179;-55
2022/02/09 07:00:41;;;;;;;8.63;4.15;;;;;;;4.01;70.72;100270.07;1783114;78;21120;-55
2022/02/09 07:03:08;;;;;;;9.03;4.58;;;;;;;4.02;70.83;100270.93;1788865;78;21024;-54
2022/02/09 07:05:36;;;;;;;7.45;3.67;;;;;;;4.04;70.92;100276.89;1785705;78;21587;-55
2022/02/09 07:08:03;;;;;;;8.60;3.70;;;;;;;4.04;70.77;100282.92;1788569;78;21560;-56
2022/02/09 07:10:31;;;;;;;6.15;3.22;;;;;;;4.01;70.81;100290.89;1795059;78;21462;-55
2022/02/09 07:12:58;;;;;;;7.45;3.98;;;;;;;3.97;70.86;100288.09;1756626;78;21694;-55
2022/02/09 07:15:29;;;;;;;7.55;3.95;;;;;;;4.00;70.92;100290.98;1783256;78;21073;-54
2022/02/09 07:17:54;;;;;;;7.17;3.98;;;;;;;4.11;70.76;100283.43;1779353;78;21026;-55
2022/02/09 07:20:25;;;;;;;7.35;3.12;;;;;;;4.21;70.57;100294.19;1790191;78;20976;-55
2022/02/09 07:22:55;;;;;;;9.80;4.22;;;;;;;4.31;70.48;100293.23;1761471;78;21897;-56
2022/02/09 07:25:20;;;;;;;8.95;4.22;;;;;;;4.35;70.33;100290.34;1777851;78;21059;-54
2022/02/09 07:30:19;;;;;;;14.47;4.90;;;;;;;4.40;70.03;100296.13;1786314;78;22210;-54
2022/02/09 07:32:47;;;;;;;7.85;3.33;;;;;;;4.42;70.02;100307.78;1785608;78;21076;-54
2022/02/09 07:35:13;;;;;;;8.80;4.58;;;;;;;4.43;70.05;100304.26;1789473;78;21365;-57
2022/02/09 07:37:40;;;;;;;7.42;3.95;;;;;;;4.45;69.99;100308.47;1789206;78;21018;-53
2022/02/09 07:40:11;;;;;;;7.25;3.72;;;;;;;4.54;69.84;100304.51;1796390;78;21074;-54
2022/02/09 07:42:44;;;;;;;8.80;3.87;;;;;;;4.67;69.59;100298.59;1764168;78;21453;-54
2022/02/09 07:45:45;;;;;;;7.12;4.10;;;;;;;4.80;69.32;100303.48;1761627;78;21089;-54
2022/02/09 07:50:37;;;;;;;10.28;4.78;;;;;;;4.88;68.69;100307.80;1782966;78;21572;-54
2022/02/09 07:53:10;;;;;;;6.87;4.30;;;;;;;4.86;68.58;100306.19;1784593;78;21049;-55
2022/02/09 07:55:25;;;;;;;9.88;3.92;;;;;;;4.85;68.59;100310.58;1791056;78;21378;-54
2022/02/09 07:57:52;;;;;;;6.20;3.22;;;;;;;4.87;68.54;100315.23;1766599;78;21884;-53
2022/02/09 08:00:18;;;;;;;8.80;3.72;;;;;;;4.91;68.17;100308.93;1785069;78;21593;-54
2022/02/09 08:02:46;;;;;;;10.93;4.00;;;;;;;4.97;67.91;100313.77;1784131;78;21074;-54
2022/02/09 08:05:13;;;;;;;6.25;2.87;;;;;;;4.99;67.74;100319.77;1793355;78;21131;-53
2022/02/09 08:07:39;;;;;;;7.70;3.70;;;;;;;5.03;67.70;100321.72;1764366;78;21355;-54
2022/02/09 08:10:16;;;;;;;7.30;3.50;;;;;;;5.07;67.65;100323.69;1793488;78;21467;-54
2022/02/09 08:33:42;;;;;;;6.78;2.85;;;;;;;5.40;65.99;100338.66;1761381;78;21030;-70
2022/02/09 08:36:08;;;;;;;7.42;2.60;;;;;;;5.41;65.54;100347.31;1782977;78;21037;-71
2022/02/09 08:38:36;;;;;;;7.67;3.05;;;;;;;5.44;65.75;100335.87;1789475;78;21129;-73
2022/02/09 08:41:04;;;;;;;7.40;3.15;;;;;;;5.43;65.80;100335.48;1785544;78;21048;-69
2022/02/09 08:43:30;;;;;;;7.12;2.67;;;;;;;5.47;65.69;100336.53;1758017;78;21020;-71
2022/02/09 08:45:57;;;;;;;6.72;3.10;;;;;;;5.52;65.40;100344.92;1791232;78;21061;-69
2022/02/09 08:48:24;;;;;;;5.10;2.40;;;;;;;5.62;65.02;100346.52;1751400;79;21100;-68
2022/02/09 08:50:51;;;;;;;7.33;2.98;;;;;;;5.67;64.76;100352.78;1777406;78;22524;-70
2022/02/09 08:53:19;;;;;;;6.30;2.92;;;;;;;5.67;64.20;100354.92;1771455;78;21058;-71
2022/02/09 08:55:46;;;;;;;8.75;2.98;;;;;;;5.65;64.24;100358.53;1782018;78;21077;-70
2022/02/09 08:58:15;;;;;;;5.78;2.10;;;;;;;5.66;64.11;100364.97;1775821;78;21113;-69
2022/02/09 09:00:42;;;;;;;5.87;2.40;;;;;;;5.65;64.33;100367.67;1751362;78;21061;-66
2022/02/09 09:03:23;;;;;;;5.75;2.25;;;;;;;5.66;63.96;100370.19;1804838;77;21145;-69
2022/02/09 09:05:56;;;;;;;6.12;2.90;;;;;;;5.71;63.81;100372.06;1773834;78;21104;-65
2022/02/09 09:08:40;;;;;;;6.70;2.40;;;;;;;5.72;63.80;100364.61;1773686;78;21543;-68
2022/02/09 09:25:08;;;;;;;6.72;3.00;;;;;;;5.68;63.58;100376.63;1802241;77;21093;-71
2022/02/09 10:01:13;;;;;;;4.97;1.80;;;;;;;6.32;56.71;100392.79;1797517;77;21006;-54
2022/02/09 10:02:49;;;;;;;12.25;2.35;;;;;;;6.21;56.98;100388.24;1794520;77;21576;-54
2022/02/09 10:34:28;;;;;;;4.15;1.32;;;;;;;5.65;56.71;100386.80;1800728;77;21533;-52
2022/02/09 10:37:05;;;;;;;4.35;1.40;;;;;;;5.61;56.69;100398.34;1768738;79;21069;-52
2022/02/09 10:39:58;;;;;;;5.47;1.27;;;;;;;5.53;56.02;100383.59;1775953;78;22116;-56
2022/02/09 10:42:22;;;;;;;8.75;1.77;;;;;;;5.44;55.69;100406.34;1775473;78;21059;-54
2022/02/09 10:44:54;;;;;;;8.10;1.95;;;;;;;5.45;56.50;100414.08;1779495;78;20986;-56
2022/02/09 10:47:27;;;;;;;4.55;1.50;;;;;;;5.43;57.02;100411.16;1773370;79;21091;-54
2022/02/09 10:50:31;;;;;;;5.42;1.77;;;;;;;5.56;57.14;100427.80;1781285;78;21079;-54
2022/02/09 10:53:00;;;;;;;8.83;3.12;;;;;;;5.68;56.48;100421.02;1811394;77;21771;-56
2022/02/09 10:55:42;;;;;;;7.55;2.67;;;;;;;5.77;57.19;100442.20;1814583;77;21070;-55
2022/02/09 10:58:12;;;;;;;9.50;3.00;;;;;;;5.93;56.65;100433.45;1803470;77;21065;-56
2022/02/09 11:00:46;;;;;;;6.75;2.95;;;;;;;6.07;56.21;100433.51;1776684;77;21593;-57
2022/02/09 11:03:18;;;;;;;4.40;1.62;;;;;;;6.13;54.96;100435.73;1779593;78;21085;-55
2022/02/09 11:05:47;;;;;;;4.72;1.80;;;;;;;6.20;54.52;100436.67;1807593;77;22327;-55
2022/02/09 11:08:14;;;;;;;5.15;1.55;;;;;;;6.27;54.80;100428.83;1811084;77;21095;-56
2022/02/09 11:10:42;;;;;;;9.00;2.58;;;;;;;6.32;53.80;100435.91;1790261;78;21089;-57
2022/02/09 11:13:10;;;;;;;6.55;2.08;;;;;;;6.38;53.92;100429.48;1720412;78;21072;-56
2022/02/09 11:15:40;;;;;;;9.10;4.00;;;;;;;6.48;54.08;100439.74;1791438;78;21127;-56
2022/02/09 11:18:10;;;;;;;9.65;3.12;;;;;;;6.59;53.72;100437.75;1792522;78;21123;-55
2022/02/09 11:21:04;;;;;;;5.70;1.90;;;;;;;6.68;54.17;100437.19;1777836;78;21081;-56
2022/02/09 11:23:56;;;;;;;7.78;2.55;;;;;;;6.75;53.51;100436.34;1774109;79;21078;-55
2022/02/09 11:40:45;;;;;;;6.58;3.37;;;;;;;6.90;52.71;100455.45;1776107;78;21068;-55
2022/02/09 11:43:35;;;;;;;5.70;2.30;;;;;;;6.95;52.31;100452.91;1747963;79;21058;-56
2022/02/09 12:00:51;;;;;;;6.58;2.45;;;;;;;7.33;51.64;100474.92;1778375;78;21881;-55
2022/02/09 12:12:14;;;;;;;4.10;1.57;;;;;;;7.44;50.42;100479.83;1782199;78;21548;-55
2022/02/09 12:15:29;;;;;;;5.45;2.12;;;;;;;7.37;50.40;100481.66;1772745;78;21457;-54
2022/02/09 12:20:20;;;;;;;5.72;1.87;;;;;;;7.42;49.34;100486.95;1778040;78;21015;-57
2022/02/09 12:23:02;;;;;;;5.62;2.27;;;;;;;7.49;49.08;100481.32;1777700;78;21894;-55
2022/02/09 12:25:13;;;;;;;4.60;2.08;;;;;;;7.48;49.05;100492.72;1779181;78;21140;-55
2022/02/09 12:27:50;;;;;;;6.83;1.98;;;;;;;7.53;49.38;100492.81;1784421;78;21370;-55
2022/02/09 12:30:21;;;;;;;5.17;1.67;;;;;;;7.52;48.96;100474.09;1792635;78;21091;-56
2022/02/09 12:32:48;;;;;;;5.67;1.82;;;;;;;7.46;49.02;100491.51;1748217;79;21137;-56
2022/02/09 12:35:16;;;;;;;7.85;1.65;;;;;;;7.39;49.25;100502.85;1783113;78;21128;-55
2022/02/09 12:37:45;;;;;;;5.53;1.57;;;;;;;7.35;49.29;100500.55;1807408;77;21001;-55
2022/02/09 12:40:18;;;;;;;4.85;1.07;;;;;;;7.35;49.30;100498.77;1755641;79;22633;-54
2022/02/09 12:42:52;;;;;;;5.03;1.30;;;;;;;7.36;49.40;100500.91;1803488;77;21106;-56
2022/02/09 12:45:24;;;;;;;7.00;1.50;;;;;;;7.42;49.13;100504.44;1802868;77;21026;-55
2022/02/09 12:47:55;;;;;;;5.58;1.55;;;;;;;7.50;48.84;100508.72;1801250;77;21062;-53
2022/02/09 12:50:30;;;;;;;7.40;1.82;;;;;;;7.61;48.81;100508.00;1805808;79;22406;-55
2022/02/09 12:52:55;;;;;;;4.90;1.30;;;;;;;7.67;48.43;100508.92;1798467;77;21104;-54
2022/02/09 12:55:30;;;;;;;4.70;1.37;;;;;;;7.97;47.94;100506.03;1804159;77;21035;-55
2022/02/09 12:58:04;;;;;;;5.10;1.70;;;;;;;9.66;44.96;100516.09;1809400;77;20996;-56
2022/02/09 13:00:40;;;;;;;4.75;1.30;;;;;;;11.14;42.44;100512.16;1807735;77;21054;-55
2022/02/09 13:03:17;;;;;;;5.87;1.87;;;;;;;12.43;38.65;100514.33;1802228;77;21094;-54
2022/02/09 13:05:56;;;;;;;5.95;1.60;;;;;;;13.38;36.50;100513.94;1807700;77;21112;-55
2022/02/09 13:08:25;;;;;;;6.62;1.82;;;;;;;14.19;35.86;100519.84;1761830;79;21512;-56
2022/02/09 13:13:43;;;;;;;4.70;1.70;;;;;;;15.64;33.61;100524.57;1779034;78;21097;-54
2022/02/09 13:16:22;;;;;;;6.80;1.77;;;;;;;16.26;31.69;100515.28;1782976;78;21096;-57
2022/02/09 13:25:17;;;;;;;7.87;2.37;;;;;;;16.66;30.46;100534.58;1784578;79;21407;-55
2022/02/09 14:15:52;;;;;;;4.28;1.30;;;;;;;14.98;32.31;100592.30;1780592;78;21045;-55
2022/02/09 14:17:55;;;;;;;4.45;1.52;;;;;;;14.97;32.21;100599.90;1768813;78;21379;-55
2022/02/09 14:55:26;;;;;;;11.00;1.70;;;;;;;8.20;44.35;100638.62;1802529;77;21034;-54
2022/02/09 14:57:40;;;;;;;4.83;1.40;;;;;;;7.93;45.05;100634.25;1783779;78;21569;-55
2022/02/09 15:00:16;;;;;;;6.28;1.40;;;;;;;7.72;45.74;100635.66;1788146;78;21085;-71
2022/02/09 15:08:07;;;;;;;4.83;1.70;;;;;;;7.30;46.61;100655.76;1796151;78;21026;-68
2022/02/09 15:10:25;;;;;;;6.87;2.40;;;;;;;7.13;47.13;100668.55;1793870;78;21013;-71
2022/02/09 15:13:04;;;;;;;5.72;1.98;;;;;;;6.93;47.62;100671.09;1792690;78;21089;-71
2022/02/09 15:15:48;;;;;;;6.60;1.80;;;;;;;6.81;48.09;100672.19;1792054;78;21680;-69
2022/02/09 15:18:36;;;;;;;4.67;1.67;;;;;;;6.71;48.23;100674.98;1791044;78;20995;-71
2022/02/09 15:23:29;;;;;;;4.92;2.00;;;;;;;6.48;48.81;100675.84;1784045;78;21063;-72
2022/02/09 15:26:00;;;;;;;6.70;2.05;;;;;;;6.36;49.20;100680.48;1769344;78;21109;-67
2022/02/09 15:28:25;;;;;;;6.53;1.80;;;;;;;6.27;49.42;100677.08;1750440;78;21069;-67
2022/02/09 15:31:16;;;;;;;4.50;1.77;;;;;;;6.19;49.67;100691.91;1757553;78;21148;-73
2022/02/09 15:33:43;;;;;;;9.68;2.40;;;;;;;6.11;49.71;100684.97;1776911;78;21031;-74
2022/02/09 15:36:12;;;;;;;5.42;2.15;;;;;;;6.02;49.98;100692.00;1775697;79;21086;-71
2022/02/09 15:38:45;;;;;;;10.88;2.22;;;;;;;5.95;50.19;100694.08;1770045;79;21095;-71
2022/02/09 15:41:27;;;;;;;5.75;2.10;;;;;;;5.89;50.43;100699.19;1762930;79;21125;-66
2022/02/09 15:56:11;;;;;;;5.72;2.08;;;;;;;5.84;50.79;100704.30;1786565;78;22381;-66
2022/02/09 15:58:06;;;;;;;7.87;2.47;;;;;;;5.40;52.18;100738.41;1746132;80;21703;-73
2022/02/09 16:05:36;;;;;;;5.95;2.10;;;;;;;5.31;52.49;100734.52;1762617;79;21543;-73
2022/02/09 16:23:42;;;;;;;5.62;2.20;;;;;;;4.82;54.32;100765.70;1785323;78;21051;-71
2022/02/09 16:44:57;;;;;;;10.93;3.80;;;;;;;4.45;55.79;100773.58;1744105;80;21115;-71
2022/02/09 16:49:59;;;;;;;12.23;4.30;;;;;;;4.43;56.07;100779.77;1746606;80;21086;-70
2022/02/09 16:52:34;;;;;;;9.30;3.95;;;;;;;4.44;56.30;100782.31;1744578;80;21834;-69
2022/02/09 17:15:30;;;;;;;10.10;3.90;;;;;;;4.21;56.71;100802.93;1745312;80;21113;-65
2022/02/09 17:19:03;;;;;;;7.90;4.28;;;;;;;4.14;57.08;100797.62;1747692;80;21546;-68
2022/02/09 17:21:31;;;;;;;17.45;4.42;;;;;;;4.14;57.27;100805.91;1743856;80;21147;-72
2022/02/09 17:24:02;;;;;;;6.80;3.75;;;;;;;4.09;57.28;100808.72;1723160;80;21630;-75
2022/02/09 17:26:30;;;;;;;11.20;3.98;;;;;;;4.06;57.49;100802.34;1752419;80;21117;-68
2022/02/09 17:29:02;;;;;;;9.93;4.30;;;;;;;4.04;57.59;100801.11;1743513;80;21509;-70
2022/02/09 17:39:09;;;;;;;9.75;4.50;;;;;;;4.04;57.80;100814.60;1714574;81;21094;-73
2022/02/09 17:53:23;;;;;;;8.38;4.08;;;;;;;4.08;57.78;100808.32;1704962;81;21081;-71
2022/02/09 17:58:01;;;;;;;14.30;5.05;;;;;;;4.07;57.86;100824.88;1715708;82;21070;-73
2022/02/09 18:00:22;;;;;;;9.58;4.78;;;;;;;4.06;57.85;100819.27;1715227;81;21191;-69
2022/02/09 18:02:54;;;;;;;12.98;5.33;;;;;;;4.09;57.75;100820.44;1738255;80;21078;-67
2022/02/09 18:05:46;;;;;;;10.18;4.72;;;;;;;4.12;57.66;100833.77;1736493;80;21475;-71
2022/02/09 18:08:19;;;;;;;11.20;5.37;;;;;;;4.12;57.59;100822.91;1737058;80;21564;-70
2022/02/09 18:10:50;;;;;;;12.93;4.45;;;;;;;4.10;57.45;100826.02;1744301;80;21102;-69
2022/02/09 18:29:06;;;;;;;10.72;3.98;;;;;;;4.00;57.43;100827.35;1740362;80;21663;-74
2022/02/09 18:45:19;;;;;;;13.62;6.67;;;;;;;3.76;57.75;100839.72;1733806;80;21114;-69
2022/02/09 18:47:53;;;;;;;12.15;4.40;;;;;;;3.71;57.81;100830.81;1712470;80;21860;-68
2022/02/09 19:05:52;;;;;;;10.25;3.58;;;;;;;3.56;58.03;100824.98;1726685;80;21137;-71
2022/02/09 19:19:23;;;;;;;9.43;4.35;;;;;;;3.45;58.06;100834.11;1733212;80;21964;-66
2022/02/09 19:44:13;;;;;;;10.48;3.67;;;;;;;3.19;58.47;100829.16;1731930;80;21165;-70
2022/02/09 19:48:41;;;;;;;10.63;4.10;;;;;;;3.08;58.70;100829.16;1732636;80;21507;-69
2022/02/09 19:56:18;;;;;;;8.70;3.60;;;;;;;3.02;58.79;100842.87;1682410;81;21154;-67
2022/02/09 20:01:34;;;;;;;10.65;3.47;;;;;;;2.95;58.95;100840.97;1734672;80;21025;-70
2022/02/09 20:03:55;;;;;;;8.93;4.35;;;;;;;2.91;59.01;100839.42;1735768;80;21102;-70
2022/02/09 20:06:22;;;;;;;12.07;4.40;;;;;;;2.92;59.04;100843.70;1733976;80;21102;-67
2022/02/09 20:08:48;;;;;;;11.48;4.20;;;;;;;2.90;59.11;100841.16;1713814;81;21070;-70
2022/02/09 20:11:16;;;;;;;8.85;3.33;;;;;;;2.90;59.14;100836.42;1703304;80;21182;-70
2022/02/09 20:13:44;;;;;;;9.65;4.20;;;;;;;2.89;59.12;100829.52;1726633;81;21150;-66
2022/02/09 20:16:11;;;;;;;8.73;3.65;;;;;;;2.86;59.19;100832.23;1729702;80;20998;-67
2022/02/09 20:18:37;;;;;;;8.43;3.45;;;;;;;2.84;59.27;100831.46;1730501;80;21409;-66
2022/02/09 20:21:05;;;;;;;8.68;3.80;;;;;;;2.84;59.36;100835.36;1708093;81;22200;-68
2022/02/09 20:23:33;;;;;;;12.45;3.58;;;;;;;2.84;59.40;100831.46;1736309;80;21806;-70
2022/02/09 20:26:03;;;;;;;10.65;3.50;;;;;;;2.86;59.45;100827.04;1738881;80;21089;-70
2022/02/09 20:28:28;;;;;;;8.18;3.50;;;;;;;2.89;59.46;100827.78;1735433;80;21515;-70
2022/02/09 20:31:00;;;;;;;10.43;3.75;;;;;;;2.92;59.40;100816.41;1684511;80;21512;-69
2022/02/09 20:33:29;;;;;;;6.80;3.62;;;;;;;2.94;59.43;100816.75;1729250;80;21072;-55
2022/02/09 20:35:52;;;;;;;8.85;3.52;;;;;;;2.96;59.38;100808.42;1742613;80;21089;-55
2022/02/09 20:38:24;;;;;;;12.65;4.78;;;;;;;2.98;59.34;100806.59;1706913;82;21090;-56
2022/02/09 20:40:58;;;;;;;8.75;4.17;;;;;;;3.01;59.38;100817.77;1706270;82;21070;-55
2022/02/09 20:43:22;;;;;;;16.15;3.60;;;;;;;3.02;59.33;100816.41;1707184;82;21110;-56
2022/02/09 20:45:55;;;;;;;14.05;4.67;;;;;;;3.06;59.35;100822.32;1711265;82;21070;-55
2022/02/09 20:48:23;;;;;;;10.98;3.67;;;;;;;3.06;59.37;100824.48;1706545;82;21457;-55
2022/02/09 20:50:46;;;;;;;10.82;4.42;;;;;;;3.08;59.35;100821.36;1708659;82;21008;-55
2022/02/09 20:53:14;;;;;;;9.10;4.17;;;;;;;3.12;59.32;100824.21;1700984;82;21552;-55
2022/02/09 20:55:42;;;;;;;8.53;4.03;;;;;;;3.15;59.25;100820.66;1688394;83;21122;-55
2022/02/09 20:58:09;;;;;;;10.82;4.80;;;;;;;3.20;59.26;100817.87;1679854;83;21110;-55
2022/02/09 21:03:19;;;;;;;10.25;4.08;;;;;;;3.29;59.11;100819.59;1705215;82;21082;-55
2022/02/09 21:05:44;;;;;;;10.10;4.30;;;;;;;3.36;58.97;100817.58;1687973;82;21074;-54
2022/02/09 21:10:53;;;;;;;8.95;3.47;;;;;;;3.39;58.84;100813.55;1708903;82;21129;-55
2022/02/09 21:18:40;;;;;;;12.78;4.12;;;;;;;3.42;58.73;100817.78;1710227;82;21256;-55
2022/02/09 21:26:27;;;;;;;7.20;3.30;;;;;;;3.35;58.95;100831.05;1705120;82;21212;-55
2022/02/09 21:55:54;;;;;;;8.90;3.72;;;;;;;3.32;59.68;100801.26;1682403;82;21092;-56
2022/02/09 21:58:31;;;;;;;11.35;3.83;;;;;;;3.36;59.71;100800.67;1704162;82;21074;-56
2022/02/09 22:00:57;;;;;;;9.43;4.45;;;;;;;3.38;59.73;100799.30;1702590;83;21585;-57
2022/02/09 22:07:25;;;;;;;9.03;3.30;;;;;;;3.40;59.76;100796.20;1699008;82;23019;-55
2022/02/09 22:22:17;;;;;;;7.78;3.55;;;;;;;3.33;60.49;100799.53;1707837;82;21064;-55
2022/02/09 22:25:43;;;;;;;7.37;3.17;;;;;;;3.34;60.68;100805.09;1706957;82;21078;-55
2022/02/09 22:46:23;;;;;;;9.08;3.67;;;;;;;3.47;61.61;100785.45;1724069;81;21219;-56
2022/02/09 22:48:58;;;;;;;11.28;4.08;;;;;;;3.48;61.76;100785.84;1718399;81;21332;-56
2022/02/09 22:56:34;;;;;;;9.20;4.43;;;;;;;3.69;61.83;100780.59;1737387;80;21560;-54
2022/02/09 22:59:04;;;;;;;14.63;3.72;;;;;;;3.76;61.66;100772.88;1723425;81;21331;-54
2022/02/09 23:01:43;;;;;;;16.40;4.40;;;;;;;3.78;61.75;100761.94;1699550;82;21101;-54
2022/02/09 23:04:32;;;;;;;9.18;3.40;;;;;;;3.83;61.74;100767.81;1721335;81;21031;-56
2022/02/09 23:06:42;;;;;;;7.90;3.83;;;;;;;3.86;61.75;100767.64;1716633;81;21765;-55
2022/02/09 23:09:35;;;;;;;9.55;3.80;;;;;;;3.87;61.87;100774.55;1717872;81;21125;-56
2022/02/09 23:20:12;;;;;;;11.83;5.15;;;;;;;3.82;63.26;100753.56;1715522;81;21688;-56
2022/02/09 23:55:28;;;;;;;8.95;4.10;;;;;;;3.93;65.55;100746.07;1726592;81;21628;-56
2022/02/09 23:58:05;;;;;;;9.18;4.40;;;;;;;3.97;65.54;100742.42;1737126;80;21105;-55
